createdAt,value
2022-10-28T00:02:09.897Z,2.55
2022-10-28T00:04:37.417Z,2.40
2022-10-28T00:07:05.432Z,3.10
2022-10-28T00:09:33.051Z,2.80
2022-10-28T00:12:00.495Z,2.67
2022-10-28T00:14:27.948Z,2.72
2022-10-28T00:16:55.403Z,2.42
2022-10-28T00:19:24.216Z,2.35
2022-10-28T00:21:51.692Z,2.88
2022-10-28T00:24:19.175Z,2.30
2022-10-28T00:26:46.871Z,2.33
2022-10-28T00:29:16.571Z,2.42
2022-10-28T00:31:45.004Z,2.60
2022-10-28T00:34:15.092Z,2.80
2022-10-28T00:36:45.559Z,2.75
2022-10-28T00:39:15.352Z,2.92
2022-10-28T00:41:45.392Z,2.90
2022-10-28T00:44:57.323Z,2.60
2022-10-28T00:47:34.463Z,2.55
2022-10-28T00:50:12.364Z,2.33
2022-10-28T00:52:42.511Z,2.83
2022-10-28T00:55:10.687Z,2.63
2022-10-28T00:57:39.653Z,2.78
2022-10-28T01:00:08.872Z,2.75
2022-10-28T01:02:45.579Z,2.35
2022-10-28T01:05:15.396Z,2.72
2022-10-28T01:07:44.775Z,3.25
2022-10-28T01:10:14.391Z,2.90
2022-10-28T01:12:54.207Z,2.55
2022-10-28T01:15:34.303Z,2.40
2022-10-28T01:18:09.948Z,2.60
2022-10-28T01:21:12.290Z,2.75
2022-10-28T01:23:53.753Z,2.60
2022-10-28T01:26:37.455Z,2.38
2022-10-28T01:29:41.119Z,2.20
2022-10-28T01:32:18.083Z,2.88
2022-10-28T01:34:54.029Z,2.67
2022-10-28T01:37:31.977Z,2.30
2022-10-28T01:40:09.367Z,2.20
2022-10-28T01:42:43.243Z,2.25
2022-10-28T01:45:16.408Z,2.75
2022-10-28T01:47:51.437Z,2.60
2022-10-28T01:50:25.225Z,2.00
2022-10-28T01:52:56.510Z,2.35
2022-10-28T01:55:28.310Z,2.35
2022-10-28T01:57:59.843Z,1.95
2022-10-28T02:00:27.840Z,2.30
2022-10-28T02:02:57.199Z,2.40
2022-10-28T02:05:45.430Z,1.98
2022-10-28T02:08:28.586Z,2.17
2022-10-28T02:11:07.367Z,2.20
2022-10-28T02:13:45.251Z,2.20
2022-10-28T02:16:23.628Z,2.22
2022-10-28T02:19:02.931Z,2.13
2022-10-28T02:21:38.010Z,2.40
2022-10-28T02:24:14.182Z,2.00
2022-10-28T02:26:47.157Z,2.08
2022-10-28T02:29:18.515Z,1.70
2022-10-28T02:31:51.002Z,2.20
2022-10-28T02:34:24.864Z,2.55
2022-10-28T02:36:55.450Z,2.85
2022-10-28T02:39:27.182Z,2.22
2022-10-28T02:41:58.519Z,2.28
2022-10-28T02:44:30.146Z,2.67
2022-10-28T02:47:03.202Z,2.30
2022-10-28T02:49:34.393Z,2.35
2022-10-28T02:52:06.875Z,2.22
2022-10-28T02:54:40.563Z,2.65
2022-10-28T02:57:11.855Z,2.28
2022-10-28T02:59:39.331Z,2.30
2022-10-28T03:02:06.843Z,2.40
2022-10-28T03:04:35.779Z,2.67
2022-10-28T03:07:03.265Z,2.67
2022-10-28T03:09:30.726Z,2.10
2022-10-28T03:11:58.170Z,2.30
2022-10-28T03:14:25.627Z,2.17
2022-10-28T03:16:53.110Z,2.08
2022-10-28T03:19:20.595Z,2.20
2022-10-28T03:21:49.386Z,2.28
2022-10-28T03:24:16.871Z,2.13
2022-10-28T03:26:44.315Z,2.08
2022-10-28T03:29:11.766Z,2.08
2022-10-28T03:31:39.286Z,1.90
2022-10-28T03:34:06.822Z,2.40
2022-10-28T03:36:34.343Z,2.00
2022-10-28T03:39:03.427Z,2.20
2022-10-28T03:41:30.890Z,2.38
2022-10-28T03:43:58.342Z,2.25
2022-10-28T03:46:25.839Z,2.22
2022-10-28T03:48:53.806Z,2.38
2022-10-28T03:51:21.581Z,2.13
2022-10-28T03:53:49.026Z,2.80
2022-10-28T03:56:17.862Z,2.20
2022-10-28T03:58:47.907Z,2.30
2022-10-28T04:01:15.534Z,2.13
2022-10-28T04:03:43.048Z,2.70
2022-10-28T04:06:10.830Z,2.65
2022-10-28T04:08:38.626Z,2.28
2022-10-28T04:11:06.787Z,2.13
2022-10-28T04:13:36.034Z,2.13
2022-10-28T04:16:03.531Z,2.22
2022-10-28T04:18:31.823Z,2.03
2022-10-28T04:20:59.492Z,2.55
2022-10-28T04:23:26.947Z,1.90
2022-10-28T04:25:55.118Z,2.17
2022-10-28T04:28:24.055Z,2.53
2022-10-28T04:30:52.970Z,2.40
2022-10-28T04:33:20.448Z,2.63
2022-10-28T04:35:47.951Z,2.65
2022-10-28T04:38:15.803Z,2.63
2022-10-28T04:40:43.402Z,2.67
2022-10-28T04:43:11.659Z,2.30
2022-10-28T04:45:39.220Z,2.80
2022-10-28T04:48:09.611Z,2.40
2022-10-28T04:50:37.263Z,2.35
2022-10-28T04:53:04.951Z,2.72
2022-10-28T04:55:32.405Z,2.38
2022-10-28T04:58:01.633Z,2.47
2022-10-28T05:00:30.508Z,2.88
2022-10-28T05:02:58.479Z,4.18
2022-10-28T05:05:27.453Z,5.13
2022-10-28T05:07:55.386Z,4.60
2022-10-28T05:10:23.234Z,5.30
2022-10-28T05:12:50.838Z,4.45
2022-10-28T05:15:18.338Z,4.10
2022-10-28T05:17:47.023Z,4.00
2022-10-28T05:20:16.566Z,3.60
2022-10-28T05:22:48.114Z,3.28
2022-10-28T05:25:15.830Z,2.92
2022-10-28T05:27:43.326Z,3.47
2022-10-28T05:30:11.849Z,3.03
2022-10-28T05:35:07.687Z,2.65
2022-10-28T05:37:35.229Z,2.88
2022-10-28T05:40:04.693Z,2.72
2022-10-28T05:42:32.320Z,3.22
2022-10-28T05:44:59.799Z,3.78
2022-10-28T05:47:27.276Z,3.53
2022-10-28T05:49:54.776Z,4.55
2022-10-28T05:52:22.266Z,4.00
2022-10-28T05:54:49.723Z,3.53
2022-10-28T05:57:18.535Z,4.75
2022-10-28T05:59:46.021Z,4.50
2022-10-28T06:02:15.369Z,4.63
2022-10-28T06:04:43.087Z,4.45
2022-10-28T06:07:10.811Z,3.80
2022-10-28T06:09:38.330Z,3.55
2022-10-28T06:12:06.718Z,3.17
2022-10-28T06:14:35.533Z,3.53
2022-10-28T06:17:06.154Z,3.72
2022-10-28T06:19:33.660Z,3.63
2022-10-28T06:22:01.190Z,3.72
2022-10-28T06:24:28.695Z,3.75
2022-10-28T06:26:56.184Z,4.03
2022-10-28T06:29:23.890Z,3.17
2022-10-28T06:31:52.739Z,3.58
2022-10-28T06:34:20.210Z,2.97
2022-10-28T06:36:47.691Z,3.33
2022-10-28T06:39:15.236Z,3.00
2022-10-28T06:41:43.064Z,3.00
2022-10-28T06:44:10.592Z,3.50
2022-10-28T06:46:39.657Z,3.47
2022-10-28T06:49:09.047Z,4.38
2022-10-28T06:51:36.551Z,4.38
2022-10-28T06:54:04.043Z,3.10
2022-10-28T06:56:31.507Z,3.55
2022-10-28T06:58:58.990Z,3.72
2022-10-28T07:01:26.656Z,4.38
2022-10-28T07:03:54.245Z,4.20
2022-10-28T07:06:23.092Z,5.00
2022-10-28T07:08:50.566Z,5.53
2022-10-28T07:11:18.910Z,4.32
2022-10-28T07:13:48.861Z,4.75
2022-10-28T07:16:16.759Z,4.50
2022-10-28T07:18:44.227Z,7.13
2022-10-28T07:21:12.222Z,6.20
2022-10-28T07:23:41.148Z,5.25
2022-10-28T07:26:08.631Z,6.55
2022-10-28T07:28:36.080Z,7.50
2022-10-28T07:31:04.664Z,7.68
2022-10-28T07:33:32.231Z,5.10
2022-10-28T07:35:59.765Z,4.80
2022-10-28T07:38:27.479Z,6.47
2022-10-28T07:40:56.326Z,8.63
2022-10-28T07:43:23.808Z,8.05
2022-10-28T07:45:56.966Z,4.07
2022-10-28T07:48:24.550Z,8.98
2022-10-28T07:50:52.000Z,8.32
2022-10-28T07:53:20.375Z,6.30
2022-10-28T07:55:57.538Z,6.53
2022-10-28T07:58:25.062Z,5.60
2022-10-28T08:00:52.875Z,6.50
2022-10-28T08:03:20.574Z,7.35
2022-10-28T08:05:48.310Z,7.60
2022-10-28T08:08:15.779Z,6.13
2022-10-28T08:10:43.622Z,6.60
2022-10-28T08:13:12.582Z,6.18
2022-10-28T08:15:40.038Z,6.75
2022-10-28T08:18:07.514Z,4.97
2022-10-28T08:20:34.993Z,5.63
2022-10-28T08:23:04.094Z,4.72
2022-10-28T08:25:34.239Z,5.32
2022-10-28T08:28:01.845Z,1.48
2022-10-28T08:30:36.528Z,6.57
2022-10-28T08:33:12.594Z,6.78
2022-10-28T08:35:40.190Z,5.57
2022-10-28T08:38:07.716Z,6.95
2022-10-28T08:40:48.251Z,6.95
2022-10-28T08:43:40.029Z,6.45
2022-10-28T08:46:22.678Z,5.90
2022-10-28T08:48:50.182Z,4.88
2022-10-28T08:51:23.584Z,4.47
2022-10-28T08:53:56.141Z,3.85
2022-10-28T08:56:29.655Z,5.53
2022-10-28T08:59:00.272Z,5.47
2022-10-28T09:01:38.575Z,6.28
2022-10-28T09:04:19.478Z,5.60
2022-10-28T09:06:46.951Z,5.43
2022-10-28T09:09:21.174Z,6.45
2022-10-28T09:12:04.083Z,6.25
2022-10-28T09:14:45.351Z,4.75
2022-10-28T09:17:20.046Z,5.57
2022-10-28T09:19:50.842Z,4.78
2022-10-28T09:22:24.875Z,4.15
2022-10-28T09:24:55.757Z,4.88
2022-10-28T09:27:35.598Z,4.07
2022-10-28T09:30:17.821Z,4.32
2022-10-28T09:32:54.064Z,3.80
2022-10-28T09:35:25.928Z,5.05
2022-10-28T09:37:58.757Z,4.15
2022-10-28T09:40:29.367Z,4.28
2022-10-28T09:43:05.469Z,4.22
2022-10-28T09:45:34.350Z,3.90
2022-10-28T09:48:11.916Z,3.55
2022-10-28T09:50:39.626Z,2.15
2022-10-28T09:53:13.050Z,3.88
2022-10-28T09:55:40.723Z,3.75
2022-10-28T09:58:08.226Z,3.70
2022-10-28T10:00:35.901Z,3.55
2022-10-28T10:03:07.110Z,3.70
2022-10-28T10:05:41.571Z,2.95
2022-10-28T10:10:53.728Z,2.97
2022-10-28T10:13:24.698Z,3.08
2022-10-28T10:15:55.019Z,3.38
2022-10-28T10:18:28.020Z,3.33
2022-10-28T10:20:58.447Z,3.38
2022-10-28T10:23:30.823Z,3.17
2022-10-28T10:26:00.346Z,3.58
2022-10-28T10:28:29.012Z,2.92
2022-10-28T10:30:59.111Z,3.38
2022-10-28T10:33:33.161Z,2.83
2022-10-28T10:36:03.843Z,3.10
2022-10-28T10:38:32.996Z,2.90
2022-10-28T10:41:00.494Z,3.53
2022-10-28T10:43:32.583Z,2.97
2022-10-28T10:46:02.739Z,2.70
2022-10-28T10:48:33.826Z,2.60
2022-10-28T10:51:07.525Z,2.08
2022-10-28T10:53:36.949Z,2.33
2022-10-28T10:56:08.318Z,2.42
2022-10-28T10:58:38.792Z,1.90
2022-10-28T11:01:09.325Z,2.10
2022-10-28T11:03:47.185Z,2.10
2022-10-28T11:06:23.900Z,2.88
2022-10-28T11:08:57.474Z,2.58
2022-10-28T11:11:33.218Z,2.22
2022-10-28T11:14:05.138Z,3.03
2022-10-28T11:16:32.661Z,2.20
2022-10-28T11:19:16.567Z,2.00
2022-10-28T11:21:59.322Z,1.92
2022-10-28T11:24:43.594Z,2.25
2022-10-28T11:27:19.766Z,2.08
2022-10-28T11:29:47.820Z,2.10
2022-10-28T11:32:26.649Z,2.00
2022-10-28T11:35:30.580Z,1.80
2022-10-28T11:38:11.669Z,1.38
2022-10-28T11:40:53.141Z,1.02
2022-10-28T11:43:28.498Z,1.63
2022-10-28T11:46:04.420Z,1.33
2022-10-28T11:48:45.997Z,1.45
2022-10-28T11:51:31.237Z,1.50
2022-10-28T11:54:20.902Z,1.55
2022-10-28T11:56:55.093Z,1.30
2022-10-28T12:00:02.195Z,1.42
2022-10-28T12:02:53.559Z,1.40
2022-10-28T12:05:25.532Z,1.33
2022-10-28T12:08:08.301Z,1.30
2022-10-28T12:10:46.834Z,1.15
2022-10-28T12:13:23.033Z,1.88
2022-10-28T12:16:00.590Z,1.13
2022-10-28T12:18:33.926Z,0.93
2022-10-28T12:21:11.223Z,1.65
2022-10-28T12:23:42.430Z,1.63
2022-10-28T12:26:14.618Z,1.10
2022-10-28T12:28:44.653Z,1.38
2022-10-28T12:31:21.345Z,0.85
2022-10-28T12:33:51.930Z,1.20
2022-10-28T12:36:25.441Z,1.40
2022-10-28T12:38:59.550Z,1.40
2022-10-28T12:41:29.039Z,0.88
2022-10-28T12:44:01.539Z,1.20
2022-10-28T12:46:35.382Z,1.20
2022-10-28T12:49:11.369Z,1.05
2022-10-28T12:51:41.686Z,0.90
2022-10-28T12:54:22.281Z,1.50
2022-10-28T12:56:53.289Z,1.10
2022-10-28T12:59:29.409Z,1.67
2022-10-28T13:02:01.078Z,1.25
2022-10-28T13:04:29.330Z,0.95
2022-10-28T13:07:32.902Z,1.20
2022-10-28T13:10:14.153Z,0.93
2022-10-28T13:13:09.464Z,1.05
2022-10-28T13:15:52.476Z,1.25
2022-10-28T13:18:49.301Z,1.20
2022-10-28T13:21:29.139Z,1.08
2022-10-28T13:24:05.504Z,0.80
2022-10-28T13:26:36.584Z,1.30
2022-10-28T13:29:07.888Z,0.77
2022-10-28T13:31:40.611Z,1.20
2022-10-28T13:34:10.247Z,1.17
2022-10-28T13:36:42.626Z,1.20
2022-10-28T13:39:24.744Z,0.80
2022-10-28T13:42:23.732Z,1.00
2022-10-28T13:44:54.041Z,1.10
2022-10-28T13:47:30.084Z,0.90
2022-10-28T13:50:25.964Z,1.20
2022-10-28T13:53:41.851Z,1.30
2022-10-28T13:56:41.011Z,1.10
2022-10-28T13:59:22.551Z,1.30
2022-10-28T14:02:02.226Z,0.95
2022-10-28T14:04:38.421Z,1.08
2022-10-28T14:07:21.499Z,1.33
2022-10-28T14:09:52.259Z,1.10
2022-10-28T14:12:26.602Z,1.08
2022-10-28T14:17:49.118Z,1.00
2022-10-28T14:20:31.350Z,1.02
2022-10-28T14:22:59.221Z,1.10
2022-10-28T14:26:04.298Z,1.20
2022-10-28T14:28:54.741Z,1.45
2022-10-28T14:31:45.032Z,0.95
2022-10-28T14:34:37.600Z,1.00
2022-10-28T14:37:27.504Z,1.23
2022-10-28T14:40:07.160Z,1.02
2022-10-28T14:42:52.202Z,1.33
2022-10-28T14:45:34.917Z,1.10
2022-10-28T14:48:23.113Z,1.13
2022-10-28T14:50:53.788Z,1.40
2022-10-28T14:53:26.343Z,1.20
2022-10-28T14:56:00.621Z,1.13
2022-10-28T14:58:31.540Z,1.17
2022-10-28T15:01:19.857Z,0.98
2022-10-28T15:03:50.772Z,0.90
2022-10-28T15:06:27.836Z,0.90
2022-10-28T15:08:55.816Z,1.33
2022-10-28T15:11:23.840Z,1.00
2022-10-28T15:13:53.554Z,1.20
2022-10-28T15:16:23.091Z,1.17
2022-10-28T15:18:52.567Z,1.67
2022-10-28T15:21:22.295Z,1.50
2022-10-28T15:24:01.306Z,1.40
2022-10-28T15:26:28.992Z,1.70
2022-10-28T15:28:56.865Z,1.30
2022-10-28T15:31:24.485Z,1.73
2022-10-28T15:33:52.008Z,1.27
2022-10-28T15:36:22.200Z,1.83
2022-10-28T15:38:51.050Z,1.48
2022-10-28T15:41:49.182Z,1.60
2022-10-28T15:44:31.378Z,1.42
2022-10-28T15:47:00.390Z,1.25
2022-10-28T15:49:39.205Z,1.25
2022-10-28T15:52:34.662Z,1.30
2022-10-28T15:55:04.729Z,1.40
2022-10-28T15:57:48.006Z,1.38
2022-10-28T16:00:26.553Z,1.50
2022-10-28T16:02:59.045Z,1.58
2022-10-28T16:05:54.442Z,1.33
2022-10-28T16:08:25.423Z,1.58
2022-10-28T16:10:56.459Z,1.20
2022-10-28T16:13:37.760Z,1.38
2022-10-28T16:16:09.318Z,1.52
2022-10-28T16:18:42.962Z,1.63
2022-10-28T16:21:18.619Z,1.10
2022-10-28T16:23:48.745Z,1.50
2022-10-28T16:26:16.634Z,1.35
2022-10-28T16:28:45.561Z,1.55
2022-10-28T16:31:15.991Z,1.35
2022-10-28T16:33:44.089Z,1.50
2022-10-28T16:36:12.201Z,1.60
2022-10-28T16:38:40.006Z,1.92
2022-10-28T16:41:11.934Z,1.75
2022-10-28T16:43:39.410Z,1.45
2022-10-28T16:46:08.621Z,2.05
2022-10-28T16:48:36.083Z,1.65
2022-10-28T16:51:06.181Z,2.50
2022-10-28T16:53:33.746Z,1.90
2022-10-28T16:56:01.185Z,1.30
2022-10-28T16:58:30.006Z,1.90
2022-10-28T17:00:57.850Z,1.70
2022-10-28T17:03:27.004Z,1.40
2022-10-28T17:05:54.882Z,1.52
2022-10-28T17:08:42.296Z,1.85
2022-10-28T17:11:14.743Z,2.20
2022-10-28T17:13:42.193Z,2.00
2022-10-28T17:16:09.633Z,1.60
2022-10-28T17:18:38.465Z,1.73
2022-10-28T17:21:06.394Z,2.40
2022-10-28T17:23:33.845Z,1.70
2022-10-28T17:26:03.341Z,1.45
2022-10-28T17:28:30.901Z,2.05
2022-10-28T17:31:03.349Z,1.83
2022-10-28T17:33:31.013Z,1.70
2022-10-28T17:36:03.074Z,1.83
2022-10-28T17:38:30.805Z,1.73
2022-10-28T17:40:58.741Z,2.40
2022-10-28T17:43:26.210Z,2.05
2022-10-28T17:45:54.915Z,2.17
2022-10-28T17:48:22.506Z,2.85
2022-10-28T17:50:54.663Z,2.50
2022-10-28T17:53:23.602Z,2.45
2022-10-28T17:55:56.821Z,4.45
2022-10-28T17:58:24.329Z,3.38
2022-10-28T18:00:57.394Z,3.75
2022-10-28T18:03:25.210Z,3.70
2022-10-28T18:05:53.077Z,3.58
2022-10-28T18:08:21.482Z,2.47
2022-10-28T18:10:54.840Z,3.47
2022-10-28T18:13:26.329Z,3.25
2022-10-28T18:15:54.010Z,3.00
2022-10-28T18:18:21.509Z,3.53
2022-10-28T18:20:53.510Z,3.67
2022-10-28T18:23:21.015Z,3.33
2022-10-28T18:25:57.678Z,3.08
2022-10-28T18:28:26.554Z,3.05
2022-10-28T18:30:54.038Z,3.30
2022-10-28T18:33:21.745Z,3.35
2022-10-28T18:35:49.208Z,3.40
2022-10-28T18:38:16.694Z,3.80
2022-10-28T18:40:47.786Z,3.42
2022-10-28T18:43:15.585Z,2.90
2022-10-28T18:45:44.616Z,2.22
2022-10-28T18:48:12.078Z,2.25
2022-10-28T18:50:39.556Z,2.80
2022-10-28T18:53:07.010Z,2.40
2022-10-28T18:55:34.491Z,2.42
2022-10-28T18:58:02.014Z,2.47
2022-10-28T19:00:29.583Z,2.50
2022-10-28T19:02:58.401Z,2.30
2022-10-28T19:05:25.883Z,2.95
2022-10-28T19:07:53.663Z,2.35
2022-10-28T19:10:21.410Z,2.85
2022-10-28T19:12:52.745Z,2.00
2022-10-28T19:15:20.573Z,2.15
2022-10-28T19:17:48.062Z,2.40
2022-10-28T19:20:16.914Z,2.28
2022-10-28T19:22:44.450Z,3.13
2022-10-28T19:25:12.426Z,3.30
2022-10-28T19:27:39.921Z,2.90
2022-10-28T19:30:12.398Z,2.90
2022-10-28T19:32:41.146Z,2.85
2022-10-28T19:35:09.400Z,2.25
2022-10-28T19:37:38.209Z,2.15
2022-10-28T19:40:06.511Z,2.75
2022-10-28T19:45:03.768Z,2.33
2022-10-28T19:47:31.315Z,2.80
2022-10-28T19:49:58.968Z,3.13
2022-10-28T19:52:26.455Z,3.58
2022-10-28T19:54:55.248Z,5.50
2022-10-28T19:57:22.725Z,6.22
2022-10-28T19:59:50.195Z,6.63
2022-10-28T20:02:17.818Z,5.55
2022-10-28T20:04:45.815Z,4.03
2022-10-28T20:07:13.270Z,3.20
2022-10-28T20:09:40.718Z,2.92
2022-10-28T20:12:09.611Z,2.88
2022-10-28T20:14:37.178Z,3.17
2022-10-28T20:17:06.751Z,3.63
2022-10-28T20:19:34.373Z,2.75
2022-10-28T20:22:01.847Z,2.67
2022-10-28T20:24:29.310Z,2.88
2022-10-28T20:26:56.801Z,2.13
2022-10-28T20:29:25.597Z,2.75
2022-10-28T20:31:53.230Z,2.63
2022-10-28T20:34:20.706Z,2.50
2022-10-28T20:36:48.402Z,2.35
2022-10-28T20:39:17.425Z,2.65
2022-10-28T20:41:46.739Z,3.13
2022-10-28T20:44:14.669Z,3.88
2022-10-28T20:46:44.908Z,3.53
2022-10-28T20:49:13.155Z,3.20
2022-10-28T20:54:08.122Z,3.13
2022-10-28T20:56:37.706Z,3.10
2022-10-28T20:59:06.043Z,2.50
2022-10-28T21:04:05.683Z,4.25
2022-10-28T21:06:33.615Z,5.35
2022-10-28T21:09:01.365Z,5.85
2022-10-28T21:11:29.622Z,7.15
2022-10-28T21:13:59.250Z,7.70
2022-10-28T21:16:27.762Z,6.40
2022-10-28T21:18:55.795Z,5.57
2022-10-28T21:21:25.298Z,8.07
2022-10-28T21:23:52.843Z,5.97
2022-10-28T21:26:20.611Z,4.20
2022-10-28T21:28:50.349Z,4.85
2022-10-28T21:31:18.194Z,4.50
2022-10-28T21:33:46.416Z,4.10
2022-10-28T21:36:16.048Z,4.00
2022-10-28T21:38:45.205Z,4.47
2022-10-28T21:41:14.633Z,4.43
2022-10-28T21:43:44.980Z,4.63
2022-10-28T21:46:12.584Z,3.65
2022-10-28T21:48:40.828Z,3.58
2022-10-28T21:51:13.520Z,3.63
2022-10-28T21:53:43.236Z,4.03
2022-10-28T21:56:17.005Z,4.30
2022-10-28T21:58:46.912Z,4.10
2022-10-28T22:01:16.968Z,3.28
2022-10-28T22:03:44.545Z,3.20
2022-10-28T22:06:12.230Z,3.28
2022-10-28T22:08:39.708Z,3.53
2022-10-28T22:11:09.072Z,3.30
2022-10-28T22:13:37.916Z,3.42
2022-10-28T22:16:07.304Z,3.72
2022-10-28T22:18:36.576Z,3.05
2022-10-28T22:21:06.397Z,3.22
2022-10-28T22:23:34.165Z,4.10
2022-10-28T22:26:02.755Z,3.88
2022-10-28T22:28:30.234Z,4.07
2022-10-28T22:31:03.881Z,3.90
2022-10-28T22:33:31.474Z,3.38
2022-10-28T22:35:59.720Z,3.75
2022-10-28T22:38:27.913Z,3.90
2022-10-28T22:41:06.255Z,4.45
2022-10-28T22:43:34.323Z,3.35
2022-10-28T22:46:03.724Z,3.17
2022-10-28T22:48:31.838Z,3.30
2022-10-28T22:50:59.499Z,3.50
2022-10-28T22:53:27.364Z,3.45
2022-10-28T22:55:55.196Z,3.72
2022-10-28T22:58:23.618Z,3.40
2022-10-28T23:03:20.071Z,3.05
2022-10-28T23:05:47.572Z,3.25
2022-10-28T23:08:16.713Z,3.00
2022-10-28T23:10:44.274Z,3.05
2022-10-28T23:13:13.575Z,2.53
2022-10-28T23:15:41.184Z,3.00
2022-10-28T23:18:08.649Z,2.95
2022-10-28T23:20:37.588Z,3.08
2022-10-28T23:23:05.139Z,2.65
2022-10-28T23:25:32.612Z,2.40
2022-10-28T23:28:00.113Z,2.50
2022-10-28T23:30:27.688Z,2.50
2022-10-28T23:32:57.608Z,3.40
2022-10-28T23:35:25.101Z,2.53
2022-10-28T23:37:54.118Z,2.85
2022-10-28T23:40:21.857Z,2.80
2022-10-28T23:42:49.312Z,2.60
2022-10-28T23:45:16.841Z,2.33
2022-10-28T23:47:44.308Z,3.03
2022-10-28T23:50:14.676Z,2.28
2022-10-28T23:52:42.657Z,2.50
2022-10-28T23:55:11.680Z,2.72
2022-10-28T23:57:39.167Z,2.10
